DW8710 Weather Reports


Display with metric or nautical units.
time (UTC)temp
F
wind
direction
speed
MPH
gust
MPH
rain 1hr
in
rain 24hr
in
rain mn
in
humidity
%
barometer
mb
20201129191304 43 0 0.0 0.0 0.00 0.00 0.00 99
20201129190206 43 139 0.0 4.0 0.00 0.00 0.00 99
20201129185105 44 0 0.0 0.0 0.00 0.00 0.00 99
20201129184013 44 0 0.0 0.0 0.00 0.00 0.00 99
20201129182904 44 0 0.0 0.0 0.00 0.00 0.00 99
20201129181804 44 63 0.0 2.0 0.00 0.00 0.00 99
20201129180705 44 63 0.0 2.0 0.00 0.00 0.00 99
20201129175608 44 0 0.0 0.0 0.00 0.00 0.00 99
20201129174510 44 0 0.0 0.0 0.00 0.00 0.00 99
20201129173404 44 0 0.0 0.0 0.00 0.00 0.00 99
20201129172307 44 0 0.0 0.0 0.00 0.00 0.00 99
20201129171204 44 0 0.0 0.0 0.00 0.00 0.00 99
20201129170112 44 0 0.0 0.0 0.00 0.00 0.00 99
20201129165019 44 0 0.0 0.0 0.00 0.00 0.00 99
20201129163904 44 0 0.0 0.0 0.00 0.00 0.00 99
20201129162806 44 0 0.0 0.0 0.00 0.00 0.00 99
20201129161707 44 0 0.0 0.0 0.00 0.00 0.00 99
20201129160604 44 0 0.0 0.0 0.00 0.00 0.00 99
20201129155516 44 63 0.0 1.0 0.00 0.00 0.00 99
20201129154407 44 0 0.0 0.0 0.00 0.00 0.00 99
20201129153304 44 63 0.0 2.0 0.00 0.00 0.00 99
20201129152207 44 0 0.0 0.0 0.00 0.00 0.00 99
20201129151105 44 0 0.0 0.0 0.00 0.00 0.00 99
20201129150024 44 0 0.0 0.0 0.00 0.00 0.00 99
20201129144904 44 0 0.0 0.0 0.00 0.00 0.00 99
20201129143806 44 0 0.0 0.0 0.00 0.00 0.00 99
20201129142704 44 0 0.0 0.0 0.00 0.00 0.00 99
20201129141604 44 63 0.0 1.0 0.00 0.00 0.00 99
20201129140507 44 63 0.0 3.0 0.00 0.00 0.00 98
20201129135404 44 63 0.0 3.0 0.00 0.00 0.00 99
20201129134304 44 0 0.0 0.0 0.00 0.00 0.00 99
20201129133204 44 0 0.0 0.0 0.00 0.00 0.00 99
20201129132105 44 63 0.0 2.0 0.00 0.00 0.00 99
20201129131011 44 63 0.0 3.0 0.00 0.00 0.00 99
20201129125904 44 0 0.0 0.0 0.00 0.00 0.00 99
20201129124805 44 63 0.0 2.0 0.00 0.00 0.00 99
20201129123706 44 63 0.0 2.0 0.00 0.00 0.00 99
20201129122604 44 0 0.0 0.0 0.00 0.00 0.00 99
20201129121510 44 62 0.0 2.0 0.00 0.00 0.00 99
20201129120405 44 62 0.0 3.0 0.00 0.00 0.00 99
20201129115306 44 63 0.0 2.0 0.00 0.00 0.00 99
20201129114206 44 0 0.0 0.0 0.00 0.00 0.00 99
20201129113105 44 63 0.0 2.0 0.00 0.00 0.00 100
20201129112008 44 63 0.0 2.0 0.00 0.00 0.00 100
20201129110905 44 62 0.0 1.0 0.00 0.00 0.00 100
20201129105807 44 0 0.0 0.0 0.00 0.00 0.00 100
20201129104705 44 57 0.0 1.0 0.00 0.00 0.00 99
20201129103604 44 57 0.0 2.0 0.00 0.00 0.00 100
20201129102514 44 46 0.0 2.0 0.00 0.00 0.00 100
20201129101404 44 91 0.0 4.0 0.00 0.00 0.00 100
20201129100306 44 88 0.0 3.0 0.00 0.00 0.00 100
20201129095204 44 62 0.0 2.0 0.00 0.00 0.00 99
20201129094103 44 73 0.0 4.0 0.00 0.00 0.00 99
20201129093017 44 95 1.0 5.0 0.00 0.00 0.00 99
20201129091903 45 79 0.0 3.0 0.00 0.00 0.00 100
20201129090804 45 86 0.0 2.0 0.00 0.00 0.00 100
20201129085704 45 65 1.0 3.0 0.00 0.00 0.00 99
20201129084605 45 40 0.0 1.0 0.00 0.00 0.00 99
20201129083507 45 39 0.0 2.0 0.00 0.00 0.00 99
20201129082406 45 117 0.0 3.0 0.00 0.00 0.00 99
20201129081304 45 117 0.0 2.0 0.00 0.00 0.00 99
20201129080204 45 124 0.0 1.0 0.00 0.00 0.00 99
20201129075105 45 121 0.0 2.0 0.00 0.00 0.00 99
20201129074024 45 85 0.0 3.0 0.00 0.00 0.00 99
20201129072910 45 53 0.0 1.0 0.00 0.00 0.00 99
20201129071804 45 0 0.0 0.0 0.00 0.00 0.00 99
20201129070707 45 53 0.0 2.0 0.00 0.00 0.00 99
20201129065604 45 47 0.0 2.0 0.00 0.00 0.00 99
20201129064516 45 55 0.0 2.0 0.00 0.00 0.00 99
20201129063404 45 83 0.0 2.0 0.00 0.00 0.00 99
20201129062307 45 83 0.0 3.0 0.00 0.00 0.00 99
20201129061205 45 86 1.0 6.0 0.00 0.00 0.00 99
20201129060133 46 89 0.0 4.0 0.00 0.00 0.00 99
20201129055016 46 102 0.0 3.0 0.00 0.00 0.00 99
20201129053904 46 105 0.0 3.0 0.00 0.00 0.00 99
20201129052803 46 105 0.0 2.0 0.00 0.00 0.00 99
20201129051706 46 109 0.0 2.0 0.00 0.00 0.00 99
20201129050604 46 95 0.0 2.0 0.00 0.00 0.00 99
20201129045513 46 79 0.0 4.0 0.00 0.00 0.00 99
20201129044406 46 100 0.0 2.0 0.00 0.00 0.00 99
20201129043303 46 91 0.0 5.0 0.00 0.00 0.00 99
20201129042205 46 63 0.0 3.0 0.00 0.00 0.00 99
20201129041107 46 63 0.0 3.0 0.00 0.00 0.00 99
20201129040011 47 62 0.0 3.0 0.00 0.00 0.00 99
20201129034903 47 62 0.0 2.0 0.00 0.00 0.00 99
20201129033803 47 59 0.0 4.0 0.00 0.00 0.00 99
20201129032705 47 46 0.0 3.0 0.00 0.00 0.00 99
20201129031605 47 36 0.0 2.0 0.00 0.00 0.00 99
20201129030513 47 42 0.0 3.0 0.00 0.00 0.00 98
20201129025403 47 84 0.0 3.0 0.00 0.00 0.00 98
20201129024305 47 94 0.0 4.0 0.00 0.00 0.00 98
20201129023203 47 55 1.0 6.0 0.00 0.00 0.00 98
20201129022103 47 109 0.0 5.0 0.00 0.00 0.00 98
20201129021009 47 115 0.0 3.0 0.00 0.00 0.00 98
20201129015906 47 91 0.0 2.0 0.00 0.00 0.00 98
20201129014804 47 105 0.0 2.0 0.00 0.00 0.00 98
20201129013704 47 108 0.0 5.0 0.00 0.00 0.00 98
20201129012608 47 94 1.0 5.0 0.00 0.00 0.00 98
20201129011521 47 57 0.0 3.0 0.00 0.00 0.00 98
20201129010404 47 62 0.0 3.0 0.00 0.00 0.00 98
20201129005305 47 74 0.0 2.0 0.00 0.00 0.00 98
20201129004205 47 107 0.0 4.0 0.00 0.00 0.00 98
20201129003104 47 100 0.0 5.0 0.00 0.00 0.00 97
20201129002017 47 72 0.0 2.0 0.00 0.00 0.00 97
20201129000903 47 74 0.0 3.0 0.00 0.00 0.00 97
20201128235804 47 72 0.0 2.0 0.00 0.00 0.00 97
20201128234703 47 88 0.0 4.0 0.00 0.00 0.00 97
20201128233603 47 88 0.0 3.0 0.00 0.00 0.00 97
20201128232507 47 116 0.0 3.0 0.00 0.00 0.00 97
20201128231406 47 73 0.0 4.0 0.00 0.00 0.00 97
20201128230303 48 95 0.0 5.0 0.00 0.00 0.00 97
20201128225205 48 96 0.0 5.0 0.00 0.00 0.00 97
20201128224103 48 104 0.0 3.0 0.00 0.00 0.00 97
20201128223020 48 100 0.0 2.0 0.00 0.00 0.00 97
20201128221905 48 103 0.0 3.0 0.00 0.00 0.00 97
20201128220804 48 124 0.0 3.0 0.00 0.00 0.00 97
20201128215703 48 124 0.0 1.0 0.00 0.00 0.00 97
20201128214605 48 124 0.0 2.0 0.00 0.00 0.00 97
20201128213504 48 63 0.0 3.0 0.00 0.00 0.00 97
20201128212404 48 42 0.0 2.0 0.00 0.00 0.00 97
20201128211304 48 119 0.0 3.0 0.00 0.00 0.00 97
20201128210207 48 93 0.0 2.0 0.00 0.00 0.00 97
20201128205104 48 88 0.0 2.0 0.00 0.00 0.00 96
20201128204010 48 69 0.0 3.0 0.00 0.00 0.00 96
20201128202903 48 67 0.0 2.0 0.00 0.00 0.00 96
20201128201807 48 64 0.0 3.0 0.00 0.00 0.00 96
20201128200705 48 125 0.0 3.0 0.00 0.00 0.00 96
20201128195607 48 61 0.0 2.0 0.00 0.00 0.00 96
20201128194510 48 73 0.0 4.0 0.00 0.00 0.00 95
20201128193403 48 106 0.0 2.0 0.00 0.00 0.00 95
20201128192304 48 99 1.0 4.0 0.00 0.00 0.00 95